createdAt,value
2023-09-23T00:01:49.862Z,86
2023-09-23T00:07:51.902Z,86.2
2023-09-23T00:12:37.834Z,85.5
2023-09-23T00:13:54.179Z,86.1
2023-09-23T00:16:55.208Z,86.3
2023-09-23T00:28:59.299Z,86.8
2023-09-23T00:35:01.347Z,87.2
2023-09-23T00:38:02.367Z,87.2
2023-09-23T00:42:48.077Z,87
2023-09-23T00:47:05.440Z,87.4
2023-09-23T00:50:06.460Z,87.9
2023-09-23T00:53:07.480Z,88
2023-09-23T00:56:08.504Z,88.2
2023-09-23T01:11:13.619Z,88.8
2023-09-23T01:12:58.331Z,88.9
2023-09-23T01:14:14.640Z,89.3
2023-09-23T01:17:15.661Z,89.4
2023-09-23T01:20:16.687Z,89.3
2023-09-23T01:23:17.711Z,89.1
2023-09-23T01:26:18.737Z,89.1
2023-09-23T01:29:19.752Z,89.2
2023-09-23T01:32:20.775Z,88.9
2023-09-23T01:38:22.825Z,88.6
2023-09-23T01:41:23.849Z,88.1
2023-09-23T01:43:08.579Z,87.8
2023-09-23T01:44:24.877Z,87.8
2023-09-23T01:47:25.895Z,87.7
2023-09-23T01:50:26.923Z,86.9
2023-09-23T01:53:27.939Z,86.5
2023-09-23T01:56:28.959Z,86.2
2023-09-23T01:59:29.982Z,85.6
2023-09-23T02:02:31.008Z,85.9
2023-09-23T02:05:32.033Z,85.7
2023-09-23T02:08:33.054Z,85.3
2023-09-23T02:11:34.077Z,85.9
2023-09-23T02:13:18.822Z,86.1
2023-09-23T02:14:35.104Z,85.9
2023-09-23T02:20:37.149Z,86
2023-09-23T02:23:38.174Z,86.3
2023-09-23T02:26:39.194Z,86.5
2023-09-23T02:29:40.214Z,86.9
2023-09-23T02:32:41.243Z,87
2023-09-23T02:35:42.264Z,87.2
2023-09-23T02:38:43.280Z,87.6
2023-09-23T02:41:44.305Z,88.2
2023-09-23T02:43:29.074Z,88.8
2023-09-23T02:44:45.326Z,88.6
2023-09-23T02:50:47.378Z,89.2
2023-09-23T02:53:48.397Z,88.9
2023-09-23T02:59:50.449Z,89
2023-09-23T03:02:51.469Z,89.3
2023-09-23T03:08:53.511Z,89.3
2023-09-23T03:11:54.536Z,89.3
2023-09-23T03:17:56.582Z,89.2
2023-09-23T03:20:57.603Z,89.1
2023-09-23T03:23:58.631Z,88.4
2023-09-23T03:30:00.675Z,88.5
2023-09-23T03:33:01.701Z,88.9
2023-09-23T03:36:02.722Z,89.6
2023-09-23T03:39:03.743Z,90
2023-09-23T03:42:04.768Z,90.3
2023-09-23T03:43:49.566Z,90.7
2023-09-23T03:45:05.791Z,90.8
2023-09-23T03:48:06.818Z,90.9
2023-09-23T03:51:07.840Z,91.2
2023-09-23T03:54:08.861Z,91.5
2023-09-23T03:57:09.882Z,91.8
2023-09-23T04:00:10.904Z,92.2
2023-09-23T04:03:11.933Z,92.1
2023-09-23T04:06:12.955Z,91.4
2023-09-23T04:09:13.976Z,91
2023-09-23T04:12:14.996Z,90.8
2023-09-23T04:13:59.819Z,90.2
2023-09-23T04:15:16.019Z,89.8
2023-09-23T04:18:17.046Z,89.5
2023-09-23T04:21:18.069Z,89.7
2023-09-23T04:24:19.087Z,90.1
2023-09-23T04:27:20.112Z,89.2
2023-09-23T04:30:21.130Z,89.2
2023-09-23T04:33:22.153Z,88.3
2023-09-23T04:36:23.182Z,88.1
2023-09-23T04:39:24.202Z,88.1
2023-09-23T04:44:10.062Z,87.6
2023-09-23T04:48:27.273Z,87.4
2023-09-23T04:51:28.293Z,87.6
2023-09-23T04:54:29.317Z,86.5
2023-09-23T04:57:30.346Z,87.1
2023-09-23T05:14:20.308Z,84.8
2023-09-23T05:15:36.479Z,85.3
2023-09-23T05:18:37.504Z,85.5
2023-09-23T05:21:38.527Z,85.5
2023-09-23T05:24:39.557Z,85.7
2023-09-23T05:27:40.571Z,86.2
2023-09-23T05:30:41.598Z,86.2
2023-09-23T05:33:42.620Z,86
2023-09-23T05:36:43.648Z,86.3
2023-09-23T05:39:44.664Z,85.3
2023-09-23T05:42:45.690Z,85.1
2023-09-23T05:45:46.713Z,84.9
2023-09-23T05:48:47.740Z,85.2
2023-09-23T05:51:48.764Z,84.7
2023-09-23T05:54:49.783Z,85.3
2023-09-23T05:57:50.807Z,85.6
2023-09-23T06:00:51.829Z,85.7
2023-09-23T06:06:53.877Z,85.8
2023-09-23T06:09:54.898Z,85.7
2023-09-23T06:14:40.809Z,85.8
2023-09-23T06:15:56.950Z,85.9
2023-09-23T06:18:57.973Z,85.7
2023-09-23T06:21:58.999Z,86.9
2023-09-23T06:25:00.017Z,87
2023-09-23T06:28:01.037Z,86.8
2023-09-23T06:31:02.065Z,85.9
2023-09-23T06:34:03.084Z,87.1
2023-09-23T06:37:04.113Z,87.4
2023-09-23T06:40:05.134Z,86
2023-09-23T06:43:06.152Z,85.9
2023-09-23T06:44:51.059Z,83.5
2023-09-23T06:46:07.184Z,83.5
2023-09-23T06:49:08.205Z,83.4
2023-09-23T07:01:12.295Z,80.7
2023-09-23T07:04:13.319Z,81.1
2023-09-23T07:07:14.348Z,80.8
2023-09-23T07:13:16.393Z,78.2
2023-09-23T07:15:01.313Z,78.4
2023-09-23T07:19:18.444Z,76.6
2023-09-23T07:22:19.462Z,76.9
2023-09-23T07:25:20.484Z,75.9
2023-09-23T07:37:24.577Z,74.2
2023-09-23T07:40:25.600Z,77.2
2023-09-23T07:43:26.624Z,74.9
2023-09-23T07:46:27.650Z,75
2023-09-23T07:49:28.669Z,75
2023-09-23T07:52:29.694Z,74.6
2023-09-23T07:55:30.716Z,74.9
2023-09-23T07:58:31.734Z,72.7
2023-09-23T08:01:32.757Z,71.2
2023-09-23T08:04:33.786Z,71.7
2023-09-23T08:10:34.987Z,71.4
2023-09-23T08:12:13.613Z,70.7
2023-09-23T08:13:44.122Z,70.8
2023-09-23T08:15:14.640Z,71.3
2023-09-23T08:16:29.274Z,69.5
2023-09-23T08:17:44.342Z,70
2023-09-23T08:19:14.862Z,68.5
2023-09-23T08:22:15.886Z,68.7
2023-09-23T08:26:47.424Z,68.8
2023-09-23T08:28:17.937Z,67.5
2023-09-23T08:29:48.445Z,68.1
2023-09-23T08:31:18.954Z,68.1
2023-09-23T08:32:34.024Z,69.9
2023-09-23T08:35:19.616Z,67.9
2023-09-23T08:36:50.129Z,70.2
2023-09-23T08:38:20.640Z,70.1
2023-09-23T08:39:51.146Z,69.7
2023-09-23T08:42:52.178Z,67.1
2023-09-23T08:47:23.715Z,67.1
2023-09-23T08:48:38.788Z,67.1
2023-09-23T08:49:53.579Z,69.2
2023-09-23T08:51:32.201Z,68.2
2023-09-23T08:53:02.712Z,68
2023-09-23T08:54:33.230Z,67.5
2023-09-23T08:56:03.738Z,68.2
2023-09-23T08:57:34.248Z,67
2023-09-23T08:59:04.759Z,66.8
2023-09-23T09:00:35.276Z,65.9
2023-09-23T09:02:05.792Z,66.9
2023-09-23T09:03:36.303Z,66.5
2023-09-23T09:04:51.368Z,68.2
2023-09-23T09:09:15.305Z,68.5
2023-09-23T09:10:45.813Z,68.4
2023-09-23T09:12:16.335Z,67.3
2023-09-23T09:13:46.841Z,67.6
2023-09-23T09:15:17.352Z,67.8
2023-09-23T09:16:47.864Z,66.8
2023-09-23T09:18:18.375Z,66.3
2023-09-23T09:21:03.959Z,65.2
2023-09-23T09:22:19.035Z,64.6
2023-09-23T09:25:20.064Z,64.3
2023-09-23T09:26:50.648Z,65.4
2023-09-23T09:29:59.786Z,64.8
2023-09-23T09:31:30.296Z,63.1
2023-09-23T09:33:00.812Z,65.6
2023-09-23T09:34:31.321Z,63.8
2023-09-23T09:36:01.833Z,64.1
2023-09-23T09:37:16.902Z,65
2023-09-23T09:40:02.488Z,65
2023-09-23T09:41:33.003Z,63.9
2023-09-23T09:43:03.516Z,65.8
2023-09-23T09:44:34.025Z,63.7
2023-09-23T09:46:04.541Z,66.7
2023-09-23T09:47:35.054Z,63.6
2023-09-23T09:49:05.560Z,63.6
2023-09-23T09:50:36.078Z,64.2
2023-09-23T09:52:06.592Z,63.6
2023-09-23T09:53:21.659Z,64.8
2023-09-23T09:54:36.458Z,61.1
2023-09-23T09:56:15.084Z,61.5
2023-09-23T09:57:45.591Z,61.5
2023-09-23T09:59:16.110Z,61.8
2023-09-23T10:00:46.616Z,60.6
2023-09-23T10:02:17.135Z,61.1
2023-09-23T10:03:47.640Z,61.8
2023-09-23T10:06:48.670Z,62.2
2023-09-23T10:08:19.180Z,63.1
2023-09-23T10:10:48.889Z,62.5
2023-09-23T10:12:19.400Z,62.9
2023-09-23T10:13:49.918Z,63.9
2023-09-23T10:18:21.449Z,61.9
2023-09-23T10:21:22.480Z,60.7
2023-09-23T10:24:23.510Z,60.6
2023-09-23T10:25:38.580Z,61
2023-09-23T10:26:53.651Z,61
2023-09-23T10:28:24.166Z,61.2
2023-09-23T10:32:55.702Z,59.7
2023-09-23T10:35:56.728Z,60.1
2023-09-23T10:37:27.238Z,58
2023-09-23T10:40:28.262Z,59.1
2023-09-23T10:41:43.336Z,59
2023-09-23T10:42:58.407Z,57.8
2023-09-23T10:49:00.452Z,56.5
2023-09-23T10:50:30.968Z,55.5
2023-09-23T10:52:01.481Z,57.1
2023-09-23T10:53:31.994Z,56.1
2023-09-23T10:56:33.015Z,55.7
2023-09-23T10:57:48.084Z,55.5
2023-09-23T10:59:03.155Z,54.5
2023-09-23T11:00:33.673Z,54.5
2023-09-23T11:03:34.692Z,54.3
2023-09-23T11:07:34.382Z,54.2
2023-09-23T11:10:35.404Z,56.4
2023-09-23T11:12:54.138Z,56
2023-09-23T11:14:10.113Z,55.2
2023-09-23T11:20:12.152Z,55.5
2023-09-23T11:23:13.179Z,57.4
2023-09-23T11:26:14.193Z,57.5
2023-09-23T11:29:15.216Z,57.1
2023-09-23T11:35:17.261Z,57.1
2023-09-23T11:38:18.278Z,57.5
2023-09-23T11:41:19.298Z,55.2
2023-09-23T11:43:04.373Z,55.8
2023-09-23T11:47:21.367Z,57.4
2023-09-23T11:59:25.461Z,58
2023-09-23T12:05:27.499Z,56.4
2023-09-23T12:13:14.610Z,55.7
2023-09-23T12:20:32.624Z,52.5
2023-09-23T12:23:33.656Z,52.3
2023-09-23T12:29:35.693Z,52.1
2023-09-23T12:32:36.720Z,51.8
2023-09-23T12:41:39.789Z,52.7
2023-09-23T12:43:24.852Z,53.3
2023-09-23T12:44:40.829Z,54.1
2023-09-23T12:50:42.872Z,53.9
2023-09-23T12:59:13.175Z,54.3
2023-09-23T13:02:14.190Z,54.3
2023-09-23T13:05:15.216Z,54.3
2023-09-23T13:08:16.238Z,52.7
2023-09-23T13:11:17.260Z,53.1
2023-09-23T13:13:35.087Z,53.1
2023-09-23T13:14:51.061Z,53
2023-09-23T13:17:52.087Z,52.4
2023-09-23T13:20:53.113Z,51.9
2023-09-23T13:26:55.152Z,52.1
2023-09-23T13:29:56.171Z,51.7
2023-09-23T13:43:45.325Z,52.7
2023-09-23T13:46:39.409Z,51.9
2023-09-23T13:48:09.918Z,52.6
2023-09-23T13:49:40.429Z,53.7
2023-09-23T13:51:10.944Z,52.7
2023-09-23T13:52:41.454Z,52.6
2023-09-23T13:54:11.963Z,52.8
2023-09-23T13:55:42.477Z,53.1
2023-09-23T13:57:12.992Z,53.6
2023-09-23T13:58:43.499Z,52.9
2023-09-23T14:01:44.519Z,52.3
2023-09-23T14:06:16.059Z,51.8
2023-09-23T14:07:46.572Z,52.3
2023-09-23T14:10:47.592Z,53
2023-09-23T14:12:18.108Z,53.9
2023-09-23T14:13:48.619Z,53.8
2023-09-23T14:15:03.698Z,51.9
2023-09-23T14:17:49.268Z,51.3
2023-09-23T14:19:19.787Z,52.4
2023-09-23T14:24:49.984Z,50.6
2023-09-23T14:27:51.011Z,50.6
2023-09-23T14:30:09.738Z,51
2023-09-23T14:34:26.741Z,51.8
2023-09-23T14:37:27.762Z,52.1
2023-09-23T14:40:28.782Z,51.7
2023-09-23T14:43:29.810Z,51.7
2023-09-23T14:46:30.832Z,52.4
2023-09-23T14:49:31.853Z,52.3
2023-09-23T14:52:32.879Z,52.9
2023-09-23T14:55:33.897Z,51.7
2023-09-23T14:58:34.920Z,51.4
2023-09-23T15:07:37.985Z,52.8
2023-09-23T15:10:39.002Z,51.3
2023-09-23T15:13:40.027Z,50.8
2023-09-23T15:16:41.052Z,52
2023-09-23T15:19:42.075Z,52
2023-09-23T15:22:43.092Z,53
2023-09-23T15:25:02.572Z,53.2
2023-09-23T15:29:19.576Z,51.9
2023-09-23T15:35:21.622Z,52.3
2023-09-23T15:40:50.899Z,52.6
2023-09-23T15:43:51.921Z,53.2
2023-09-23T15:49:53.974Z,53.2
2023-09-23T15:52:54.996Z,54.1
2023-09-23T15:55:12.824Z,53
2023-09-23T15:56:28.283Z,53.3
2023-09-23T15:58:06.901Z,53.8
2023-09-23T16:01:07.924Z,52.6
2023-09-23T16:04:08.948Z,53.8
2023-09-23T16:05:39.459Z,53.6
2023-09-23T16:07:09.978Z,54.5
2023-09-23T16:08:40.486Z,54.2
2023-09-23T16:11:41.508Z,54.1
2023-09-23T16:13:12.022Z,54.5
2023-09-23T16:14:42.536Z,54.8
2023-09-23T16:16:13.050Z,53.8
2023-09-23T16:17:43.561Z,53.8
2023-09-23T16:19:14.080Z,54.3
2023-09-23T16:20:44.592Z,54.9
2023-09-23T16:22:15.099Z,54.3
2023-09-23T16:23:45.611Z,54.8
2023-09-23T16:25:16.129Z,54.2
2023-09-23T16:26:31.196Z,54.5
2023-09-23T16:30:46.853Z,54.8
2023-09-23T16:32:17.370Z,55.1
2023-09-23T16:35:18.392Z,55.4
2023-09-23T16:36:48.902Z,56
2023-09-23T16:42:35.518Z,57.2
2023-09-23T16:46:51.606Z,57.7
2023-09-23T16:48:22.127Z,58.3
2023-09-23T16:55:54.760Z,59.5
2023-09-23T16:57:33.385Z,59.9
2023-09-23T16:58:48.455Z,60.4
2023-09-23T17:00:03.090Z,60.8
2023-09-23T17:01:33.606Z,60.9
2023-09-23T17:06:05.137Z,62.5
2023-09-23T17:09:06.165Z,63
2023-09-23T17:10:36.757Z,63
2023-09-23T17:13:45.892Z,63.3
2023-09-23T17:15:00.521Z,64.2
2023-09-23T17:16:15.600Z,64.2
2023-09-23T17:17:46.109Z,64.6
2023-09-23T17:19:16.618Z,64.9
2023-09-23T17:23:48.157Z,66.1
2023-09-23T17:26:49.180Z,66.5
2023-09-23T17:28:19.698Z,68.1
2023-09-23T17:29:50.288Z,67
2023-09-23T17:31:05.365Z,67
2023-09-23T17:33:50.509Z,67.8
2023-09-23T17:35:21.023Z,67.9
2023-09-23T17:38:22.044Z,67.8
2023-09-23T17:39:52.555Z,67.3
2023-09-23T17:41:23.072Z,67.4
2023-09-23T17:44:24.177Z,68.2
2023-09-23T17:48:32.611Z,69.1
2023-09-23T17:50:03.123Z,69.3
2023-09-23T17:51:33.634Z,69.9
2023-09-23T17:53:04.143Z,70.1
2023-09-23T17:54:34.663Z,70
2023-09-23T17:59:06.195Z,71.1
2023-09-23T18:02:07.217Z,70.4
2023-09-23T18:03:22.342Z,70.6
2023-09-23T18:04:37.469Z,70.8
2023-09-23T18:16:41.568Z,73.8
2023-09-23T18:19:27.204Z,73
2023-09-23T18:22:20.682Z,72.3
2023-09-23T18:31:23.748Z,71.9
2023-09-23T18:42:57.075Z,73.7
2023-09-23T18:45:58.181Z,73.5
2023-09-23T18:47:36.801Z,74
2023-09-23T18:59:10.135Z,74.8
2023-09-23T19:13:44.485Z,78
2023-09-23T19:19:46.533Z,77.5
2023-09-23T19:22:47.557Z,76.4
2023-09-23T19:29:49.347Z,78.2
2023-09-23T19:31:19.855Z,78
2023-09-23T19:34:20.878Z,79
2023-09-23T19:35:51.395Z,78.4
2023-09-23T19:38:52.422Z,78.7
2023-09-23T19:40:07.543Z,79.2
2023-09-23T19:41:22.669Z,78.7
2023-09-23T19:42:53.183Z,78.2
2023-09-23T19:50:25.742Z,78.7
2023-09-23T19:54:57.282Z,78.9
2023-09-23T19:56:12.402Z,79.2
2023-09-23T19:57:27.530Z,79.5
2023-09-23T19:58:58.126Z,79
2023-09-23T20:06:38.796Z,80.4
2023-09-23T20:08:09.311Z,80.3
2023-09-23T20:12:25.458Z,79.2
2023-09-23T20:15:11.094Z,79.7
2023-09-23T20:18:12.123Z,80.7
2023-09-23T20:19:42.718Z,80.7
2023-09-23T20:21:21.334Z,80.6
2023-09-23T20:28:38.515Z,80.7
2023-09-23T20:29:53.640Z,80.7
2023-09-23T20:32:54.661Z,80.6
2023-09-23T20:35:55.691Z,80.7
2023-09-23T20:37:26.197Z,80.8
2023-09-23T20:38:56.715Z,81.3
2023-09-23T20:40:27.229Z,81.4
2023-09-23T20:44:43.374Z,83.2
2023-09-23T20:47:29.012Z,84
2023-09-23T20:48:59.523Z,83.8
2023-09-23T20:50:30.037Z,83.5
2023-09-23T20:52:00.634Z,83.8
2023-09-23T20:58:10.789Z,84.4
2023-09-23T21:00:56.422Z,83.4
2023-09-23T21:02:11.552Z,82.7
2023-09-23T21:03:42.061Z,83.4
2023-09-23T21:05:12.576Z,83.9
2023-09-23T21:06:43.091Z,83.6
2023-09-23T21:09:44.112Z,84.5
2023-09-23T21:11:14.626Z,84.7
2023-09-23T21:12:45.138Z,84.7
2023-09-23T21:14:15.653Z,85.4
2023-09-23T21:15:46.162Z,85.6
2023-09-23T21:17:01.291Z,85.8
2023-09-23T21:18:15.979Z,85.7
2023-09-23T21:19:46.484Z,86
2023-09-23T21:21:17.004Z,85.9
2023-09-23T21:22:47.517Z,85.5
2023-09-23T21:24:18.028Z,86.2
2023-09-23T21:41:53.404Z,86
2023-09-23T21:46:24.937Z,86.6
2023-09-23T21:49:10.582Z,86.7
2023-09-23T21:50:25.706Z,86.7
2023-09-23T21:51:56.222Z,86.9
2023-09-23T21:54:57.240Z,86.6
2023-09-23T21:56:27.752Z,86.4
2023-09-23T21:57:58.265Z,86.6
2023-09-23T21:59:28.781Z,86.4
2023-09-23T22:00:59.298Z,86.3
2023-09-23T22:02:29.808Z,85.5
2023-09-23T22:05:15.092Z,85.7
2023-09-23T22:09:31.236Z,85.5
2023-09-23T22:11:01.749Z,85.1
2023-09-23T22:12:32.263Z,85
2023-09-23T22:14:02.776Z,84.3
2023-09-23T22:15:33.287Z,85.1
2023-09-23T22:18:34.312Z,85.3
2023-09-23T22:20:04.823Z,85.5
2023-09-23T22:21:19.949Z,85.5
2023-09-23T22:22:35.075Z,86.7
2023-09-23T22:24:05.591Z,86.5
2023-09-23T22:25:36.108Z,86.3
2023-09-23T22:27:06.619Z,86.3
2023-09-23T22:28:37.133Z,86.6
2023-09-23T22:30:07.646Z,87.1
2023-09-23T22:31:38.154Z,86.8
2023-09-23T22:33:08.665Z,87.1
2023-09-23T22:36:17.879Z,87.7
2023-09-23T22:37:32.569Z,88.3
2023-09-23T22:38:47.418Z,87.9
2023-09-23T22:41:56.558Z,88.4
2023-09-23T22:43:27.064Z,88.8
2023-09-23T22:44:57.577Z,88.5
2023-09-23T22:46:28.091Z,87.5
2023-09-23T22:47:58.608Z,87.7
2023-09-23T22:53:45.274Z,87.9
2023-09-23T22:55:00.400Z,88.1
2023-09-23T22:56:30.909Z,87.8
2023-09-23T22:58:01.508Z,88.2
2023-09-23T22:59:40.129Z,88.1
2023-09-23T23:01:10.637Z,87.7
2023-09-23T23:04:11.664Z,87.4
2023-09-23T23:05:42.178Z,86.8
2023-09-23T23:07:12.684Z,86.8
2023-09-23T23:08:43.200Z,86.3
2023-09-23T23:12:44.044Z,87.6
2023-09-23T23:14:22.667Z,87.7
2023-09-23T23:17:23.691Z,87.9
2023-09-23T23:18:54.210Z,88.5
2023-09-23T23:23:25.747Z,89.3
2023-09-23T23:26:11.387Z,89
2023-09-23T23:28:57.023Z,89
2023-09-23T23:33:28.557Z,89.3
2023-09-23T23:38:00.097Z,88.3
2023-09-23T23:39:30.611Z,88.5
2023-09-23T23:41:01.116Z,87.9
2023-09-23T23:42:16.247Z,87.9
2023-09-23T23:46:32.394Z,87.6
2023-09-23T23:48:02.912Z,88.2
2023-09-23T23:52:34.451Z,87.7
2023-09-23T23:55:35.471Z,87.2
2023-09-23T23:58:21.114Z,88.3
2023-09-23T23:59:36.237Z,87.9
